4Y9 weather

Eagles Landing Airport
Harrietta, Michigan, United States

Public forecast

Using degrees Fahrenheit for public forecast. Weather courtesy of forecast.io.

METAR (pilot weather report)

Closest report is Wexford County Airport, 15.3 nm (28.4 km) E. Retrieved 2019/06/20 13:35 UTC (0 seconds ago):

KCAD 201335Z AUTO 05006KT 10SM SCT015 17/14 A2970 RMK AO2 T01700145

TAF (pilot weather forecast)

Closest forecast is Manistee Co Blacker Airport, 20.5 nm (38.0 km) W. Retrieved 2019/06/20 12:21 UTC (46 minutes ago):

TAF KMBL 201120Z 2012/2112 05005KT P6SM OVC050 FM201400 05006KT P6SM SCT080 OVC180 FM201800 05009G18KT P6SM BKN200 FM202100 01009KT P6SM SCT250 FM210100 VRB04KT P6SM SCT250